• Back
  •  
  • Position of Reservoir Gates
S.No.
No. of opened gates
Position of opening (In m)
Reporting Date
Reporting Time
Discharge in Cumecs
Discharge in Cusecs
Actual date and time of Gate opening
1
2
3
4
5
6
7
8
1 8 07/08/2012 3:10:59 PM 882
2 2 11/08/2012 10:57:30 AM 100
3 8 21/08/2012 9:18:46 AM 1091
4 4 27/08/2012 9:01:47 AM 571
5 0 28/08/2012 7:19:28 AM 0
6 4 29/08/2012 6:14:13 AM 304
7 0 29/08/2012 10:56:34 AM 0
8 0 30/08/2012 8:12:25 AM 0
9 4 13/09/2012 5:54:34 AM 287
10 4 04/09/2012 8:50:01 PM 304
11 0 05/09/2012 6:38:32 AM 0
12 0 13/09/2012 5:54:34 AM 0
13 4 11/09/2012 6:13:32 AM 304
14 0 11/09/2012 7:26:53 AM 0
15 4 03/08/2013 12:49:49 AM 82
16 8 03/08/2013 1:40:49 AM 294
17 8 03/08/2013 7:31:49 AM 555
18 8 03/08/2013 10:30:46 AM 289
19 8 03/08/2013 10:30:46 AM 289
20 0 03/08/2013 2:51:46 PM 0
21 8 09/08/2013 11:48:46 PM 284
22 0 10/08/2013 6:57:46 AM 0
23 4 12/08/2013 8:41:29 PM 85
24 8 12/08/2013 9:32:29 PM 304
25 8 13/08/2013 12:29:29 AM 884
26 8 13/08/2013 12:29:29 AM 884
27 0 13/08/2013 8:50:29 AM 0
28 0 13/08/2013 9:05:29 AM 0
29 0 14/08/2013 11:40:58 PM 0
30 0 20/08/2013 8:24:34 AM 0
31 8 20/08/2013 12:29:40 PM 438
32 0 20/08/2013 8:19:10 PM 0
33 0 20/08/2013 8:19:10 PM 0
34 8 21/08/2013 2:40:10 PM 292
35 0 22/08/2013 1:28:10 AM 0
36 8 22/08/2013 6:13:12 PM 871
37 8 22/08/2013 11:43:12 PM 995
38 8 23/08/2013 6:55:12 AM 1311
39 8 23/08/2013 1:10:12 PM 860
40 8 23/08/2013 3:34:12 PM 568
41 0 24/08/2013 7:55:12 AM 0
42 8 25/08/2013 7:39:06 PM 441
43 0 26/08/2013 12:00:06 AM 0
44 4 26/08/2013 8:35:37 PM 270
45 8 26/08/2013 10:14:37 PM 608
46 0 27/08/2013 3:05:37 AM 0
47 4 30/08/2013 9:13:45 PM 221
48 0 31/08/2013 12:01:45 AM 0
49 8 09/07/2016 9:03:34 PM 307
50 8 10/07/2016 9:06:14 AM 1340
51 8 10/07/2016 9:06:14 AM 1157
52 8 10/07/2016 9:06:14 AM 1399
53 8 10/07/2016 9:06:14 AM 0
54 8 10/07/2016 9:18:07 AM 1340
55 8 10/07/2016 9:18:07 AM 1157
56 8 10/07/2016 9:18:07 AM 1399
57 8 10/07/2016 9:18:07 AM 0
58 8 10/07/2016 9:31:18 AM 1340
59 8 10/07/2016 9:31:18 AM 1157
60 8 10/07/2016 9:31:18 AM 1399
61 8 10/07/2016 9:31:18 AM 0
62 0 10/07/2016 10:36:05 AM 0
63 8 12/07/2016 8:06:59 AM 1464
64 0 12/07/2016 8:58:59 AM 0
65 8 12/07/2016 10:04:56 PM 1157
66 0 13/07/2016 7:42:59 AM 0
67 4 1.35 22/08/2020 1:00:00 PM 424.7 14998.28 2 gate opening- 1.5 m 2 gate opening - 1.2 m
68 6 1.5 23/08/2020 8:00:00 AM 707.1 24971.24
69 4 1.2 23/08/2020 12:00:00 PM 424 14973.56
70 0 0 23/08/2020 4:00:00 PM 0 0
71 8 16/07/2016 5:58:54 PM 1464
72 0 17/07/2016 6:42:54 AM 0
73 8 2.7 28/08/2020 7:00:00 PM 2379 84014.38
74 8 2.7 29/08/2020 12:00:00 AM 2379 84014.38 Actual Date of Gate Opening 28.08.2020 & Time 7.00 PM
75 8 2.5 27/07/2016 6:00:00 PM 1464 51701.16 2 gates-3.0m open,4 gates-2.50m open,2gates-2.0m open.average gate open-2.50m
76 8 4.63 29/08/2020 8:00:00 AM 3511 123990.96 1) 2 Gates @3.50M, 2) 2 Gates @ 4.50 M 3) 2 Gates @ 4.50 M 4 ) 2 Gates @ 4.50 M
77 8 4.63 29/08/2020 7:00:00 AM 3511 123990.96 1) 2 Gates @ 3.50 M 2) 2 Gates @ 4.50 M 3) 2 Gates @ 5.00 M 4) 2 Gates @ 5.50 M
78 8 3.25 29/08/2020 4:00:00 PM 1965 69393.97
79 6 2.3 30/08/2020 12:00:00 AM 838 29593.97 Gates opened on dated 29.08.2020 at 7.00AM
80 6 3.5 30/08/2020 8:00:00 AM 1285 45379.77
81 4 3.5 30/08/2020 12:00:00 PM 685 24190.77
82 8 0.44 01/08/2016 8:00:00 PM 552.7 19518.6
83 8 01/08/2016 9:39:14 PM 1512
84 0 02/08/2016 9:14:09 AM 0
85 4 05/08/2016 4:56:34 PM 196.74
86 0 0 30/08/2020 4:30:00 PM 0 0
87 0 0 31/08/2020 12:00:00 AM 0 0 All Gates closed on Dated 30.08.2020 at 4.30 PM
88 8 07/08/2016 7:33:42 AM 1497
89 0 0 07/08/2016 10:00:00 AM 0 0 Gate closed on 7/8/2016 10:00AM
90 4 08/08/2016 7:25:39 AM 198.41
91 4 0.6 08/08/2016 7:00:00 AM 198.2 6999.43
92 2 0.4 10/08/2016 11:30:00 AM 66 2330.79
93 4 0.5 08/08/2016 11:00:00 AM 131.9 4658.05
94 3 0.4 09/08/2016 12:01:00 AM 99 3496.18 Gate open-8/8/2016 7PM
95 2 1.6 10/09/2020 8:00:00 PM 262.7 9277.25
96 2 1.1 11/09/2020 8:00:00 AM 194 6851.11
97 0 0 11/09/2020 1:00:00 PM 0 0 ALL GATES ARE CLOSED
98 4 1.5 15/09/2020 8:00:00 PM 499.2 17629.25
99 2 0.4 08/08/2016 2:00:00 PM 99 3496.18
100 3 08/08/2016 5:25:47 PM 98.97
101 3 0.9 20/09/2020 12:00:00 AM 438.6 15489.16
102 3 0.4 10/08/2016 12:01:00 AM 99 3496.18 Gate open 8/8/2016 7 PM
103 2 10/08/2016 11:39:55 AM 65.98
104 2 0.4 11/08/2016 12:00:00 AM 66 2330.79 Gate open-10/8/2016 11:30 AM
105 2 1.5 23/09/2020 8:00:00 PM 247.2 8729.87
106 3 14/08/2016 10:25:29 AM 149.94
107 2 1.5 24/09/2020 8:00:00 AM 247.2 8729.87
108 1 0.6 24/09/2020 8:00:00 PM 51.34 1813.07
109 1 0.6 25/09/2020 12:00:00 AM 51.33 1812.72
110 0 0 25/09/2020 8:00:00 PM 0 0 Gate is closed
111 2 0.8 21/08/2016 12:10:00 PM 133 4696.89
112 1 0.8 23/08/2016 12:30:00 PM 66.51 2348.8
113 3 0.8 22/08/2016 6:30:00 PM 200 7063
114 1 0.8 24/08/2016 12:00:00 AM 66 2330.79 gate open-23/8/2016 12:30 PM
115 3 0.6 14/08/2016 10:00:00 AM 147 5191.3
116 3 0.8 20/08/2016 9:00:00 AM 201 7098.31
117 2 0.8 23/08/2016 6:01:00 AM 132.8 4689.83
118 3 0.6 15/08/2016 10:00:00 AM 147 5191.3
119 3 0.6 16/08/2016 12:00:00 AM 147 5191.3 gate open 15/8/2016 10 AM
120 0 0 16/08/2016 12:30:00 PM 0 0 closed
121 3 0.8 21/08/2016 12:00:00 AM 201 7098.31 Gate open-20/8/2016 9 AM
122 3 20/08/2016 11:30:20 AM 201.18
123 3 20/08/2016 11:47:23 AM 201.18
124 8 20/08/2016 9:33:56 PM 984.69
125 3 21/08/2016 10:22:42 AM 201.18
126 2 21/08/2016 5:35:58 PM 134.12
127 2 21/08/2016 5:35:58 PM 134.12
128 2 21/08/2016 5:52:17 PM 134.12
129 0 22/08/2016 7:32:06 AM 0
130 2 23/08/2016 7:17:24 AM 132.82
131 1 23/08/2016 3:34:41 PM 66.51
132 0 24/08/2016 10:02:41 AM 0
133 1 02/09/2016 3:33:56 PM 51.79
134 2 30/08/2016 11:40:22 PM 69.39
135 3 31/08/2016 9:36:18 AM 155.38
136 3 31/08/2016 9:57:15 AM 155.38
137 4 0.6 31/08/2016 12:00:00 AM 212 7486.78 Gate open 30/8/2016-11 PM
138 3 0.6 31/08/2016 9:01:00 AM 129.8 4583.89 Gate open-31/8/2016 Time 09:01 AM
139 0 0 01/09/2016 6:00:00 AM 0 0 Closed
140 3 02/09/2016 7:22:40 AM 155.38
141 2 02/09/2016 1:01:56 PM 103.59
142 1 0.6 02/09/2016 4:00:01 PM 51.79 1828.96 Gate opened at 3 pm on 02/09/2016
143 0 0 03/09/2016 1:00:00 AM 0 0 closed
144 4 0.4 03/09/2019 8:00:00 AM 4852 171348.38
145 8 0.28 03/09/2019 11:30:00 AM 292 10311.98
146 8 2.63 03/09/2019 2:30:00 PM 1699 60000.18
147 2 0.4 06/09/2019 9:30:00 AM 67.95 2399.65
148 2 0.4 06/09/2019 9:30:00 AM 67.95 2399.65
149 4 0.5 06/09/2019 4:30:00 PM 170 6003.55
150 4 0.5 07/09/2019 12:06:00 AM 170 6003.55
151 6 0.53 08/09/2019 8:00:00 AM 9683 341955.14
152 8 1.25 08/09/2019 4:30:00 PM 838.9 29625.75
153 8 2.2 08/09/2019 8:00:00 PM 1974 69711.81
154 8 2.2 09/09/2019 3:00:00 AM 1974 69711.81
155 8 0.55 09/09/2019 12:30:00 PM 368.1 12999.45
156 4 0.5 10/09/2019 12:00:00 PM 168.6 5954.11
157 4 0.5 11/09/2019 6:00:00 AM 168.6 5954.11
158 4 1.35 11/09/2019 9:00:00 AM 424.7 14998.28
159 4 0.5 11/09/2019 8:00:00 AM 168.7 5957.64
160 4 0.5 12/09/2019 4:00:00 AM 168.6 5954.11
161 8 2.37 12/09/2019 12:00:00 PM 1507 53219.7
162 4 0.5 13/09/2019 10:00:00 AM 168.7 5957.64
163 4 1.35 12/09/2019 8:30:00 PM 442 15609.23
164 4 1 14/09/2019 11:00:00 AM 269 9499.73
165 4 1.35 13/09/2019 2:49:00 AM 442 15609.23
166 0 0 13/09/2019 12:00:00 PM 0 0
167 4 1 14/09/2019 12:00:00 PM 269 9499.73
168 6 0.73 14/09/2019 4:00:00 PM 270.3 9545.64
169 4 0.8 15/09/2019 8:00:00 AM 270.3 9545.64
170 4 0.2 15/09/2019 8:20:00 AM 69.14 2441.68
171 4 0.4 15/09/2019 4:00:00 PM 137.4 4852.28
172 0 0 16/09/2019 4:30:00 PM 0 0
173 4 0.4 16/09/2019 8:02:00 AM 137.3 4851.93
174 4 0.4 16/09/2019 6:00:00 AM 115 4061.22
175 2 0.4 17/09/2019 8:00:00 AM 68.69 2425.79
176 4 0.8 17/09/2019 4:00:00 PM 270.3 9545.64
177 2 1 20/09/2019 3:16:00 PM 168.3 5944.93
178 4 0.8 18/09/2019 12:01:00 AM 270.3 9545.64
179 2 0.6 18/09/2019 8:40:00 AM 102.4 3616.26
180 2 0.2 19/09/2019 8:00:00 AM 33.97 1199.65
181 2 1 20/09/2019 12:01:00 AM 168.3 5944.93
182 2 1 19/09/2019 8:00:00 PM 168.3 5944.93
183 2 0.4 18/09/2019 8:00:00 PM 68.7 2426.14
184 2 1 20/09/2019 8:00:00 PM 168.3 5943.51
185 2 1 21/09/2019 12:01:00 AM 168.3 5943.51 gate opening since 20/9/2019at8:0pm
186 0 0 21/09/2019 11:00:00 AM 0 0 All Gates are closed.
187 2 0.4 24/09/2019 8:00:00 AM 69.23 2444.86
188 2 1.2 25/09/2019 12:05:00 AM 199.3 7039.69
189 2 0.4 24/09/2019 12:00:00 PM 69.23 2444.86
190 2 0.54 26/09/2019 12:01:00 AM 67.95 2399.65
191 2 1 22/09/2019 10:00:00 AM 168 5932.92
192 2 0.4 23/09/2019 10:00:00 AM 68.69 2425.79
193 2 1 23/09/2019 1:06:00 AM 168 5932.92
194 1 0.7 26/09/2019 11:30:00 AM 58.92 2080.76
195 2 1.2 24/09/2019 8:00:00 PM 199.3 7038.28
196 2 0.4 24/09/2019 12:01:00 AM 68.69 2425.79
197 2 0.4 24/09/2019 4:00:00 PM 69.23 2444.86
198 1 1.2 25/09/2019 8:00:00 AM 96.27 3399.78
199 0 0 26/09/2019 8:30:00 PM 0 0 All gates are closed
200 1 0.2 01/10/2019 8:00:00 AM 17.32 611.66
201 2 0.6 29/09/2019 4:00:00 PM 103.6 3658.63
202 2 0.6 30/09/2019 8:00:00 AM 103.6 3658.63
203 2 0.6 30/09/2019 12:01:00 AM 103.6 3658.63
204 1 0.4 02/10/2019 9:00:00 AM 34.69 1225.08
205 1 0.6 30/09/2019 12:00:00 PM 51.3 1811.66
206 1 0.4 02/10/2019 4:00:00 PM 34.69 1225.08
207 1 0.4 03/10/2019 12:00:00 PM 34.68 1224.72
208 1 0.4 04/10/2019 12:01:00 AM 34.68 1224.72
209 1 0.4 04/10/2019 8:00:00 AM 34.68 1224.72
210 0 0 04/10/2019 1:00:00 PM 0 0 all gates are closed
Powered by © Water Resources Department (MP). All Rights Reserved.